sensor_id;sensor_type;location;lat;lon;timestamp;pressure;altitude;pressure_sealevel;temperature;humidity
30636;BME280;17400;52.392;9.750;2023-08-12T00:02:18;101116.09;;;22.87;100.00
30636;BME280;17400;52.392;9.750;2023-08-12T00:04:46;101118.28;;;22.85;100.00
30636;BME280;17400;52.392;9.750;2023-08-12T00:07:14;101121.28;;;22.78;100.00
30636;BME280;17400;52.392;9.750;2023-08-12T00:09:42;101109.44;;;22.77;100.00
30636;BME280;17400;52.392;9.750;2023-08-12T00:12:10;101113.00;;;22.78;100.00
30636;BME280;17400;52.392;9.750;2023-08-12T00:14:38;101111.09;;;22.78;100.00
30636;BME280;17400;52.392;9.750;2023-08-12T00:17:06;101107.22;;;22.74;100.00
30636;BME280;17400;52.392;9.750;2023-08-12T00:19:35;101114.09;;;22.67;100.00
30636;BME280;17400;52.392;9.750;2023-08-12T00:22:03;101106.63;;;22.67;100.00
30636;BME280;17400;52.392;9.750;2023-08-12T00:24:31;101104.66;;;22.57;100.00
30636;BME280;17400;52.392;9.750;2023-08-12T00:26:59;101103.78;;;22.52;100.00
30636;BME280;17400;52.392;9.750;2023-08-12T00:29:27;101103.25;;;22.50;100.00
30636;BME280;17400;52.392;9.750;2023-08-12T00:31:55;101103.25;;;22.50;100.00
30636;BME280;17400;52.392;9.750;2023-08-12T00:34:24;101111.53;;;22.55;100.00
30636;BME280;17400;52.392;9.750;2023-08-12T00:36:53;101103.00;;;22.56;100.00
30636;BME280;17400;52.392;9.750;2023-08-12T00:39:21;101095.53;;;22.57;100.00
30636;BME280;17400;52.392;9.750;2023-08-12T00:41:49;101096.66;;;22.56;100.00
30636;BME280;17400;52.392;9.750;2023-08-12T00:44:17;101095.50;;;22.52;100.00
30636;BME280;17400;52.392;9.750;2023-08-12T00:46:45;101092.19;;;22.50;100.00
30636;BME280;17400;52.392;9.750;2023-08-12T00:49:15;101091.09;;;22.51;100.00
30636;BME280;17400;52.392;9.750;2023-08-12T00:51:44;101091.66;;;22.53;100.00
30636;BME280;17400;52.392;9.750;2023-08-12T00:54:14;101091.38;;;22.54;100.00
30636;BME280;17400;52.392;9.750;2023-08-12T00:56:43;101087.81;;;22.54;100.00
30636;BME280;17400;52.392;9.750;2023-08-12T00:59:19;101079.53;;;22.54;100.00
30636;BME280;17400;52.392;9.750;2023-08-12T01:01:48;101078.72;;;22.53;100.00
30636;BME280;17400;52.392;9.750;2023-08-12T01:04:16;101071.25;;;22.54;100.00
30636;BME280;17400;52.392;9.750;2023-08-12T01:06:44;101075.94;;;22.53;100.00
30636;BME280;17400;52.392;9.750;2023-08-12T01:09:13;101062.41;;;22.52;100.00
30636;BME280;17400;52.392;9.750;2023-08-12T01:11:47;101068.19;;;22.50;100.00
30636;BME280;17400;52.392;9.750;2023-08-12T01:14:19;101067.66;;;22.48;100.00
30636;BME280;17400;52.392;9.750;2023-08-12T01:16:52;101060.44;;;22.42;100.00
30636;BME280;17400;52.392;9.750;2023-08-12T01:19:32;101054.88;;;22.37;100.00
30636;BME280;17400;52.392;9.750;2023-08-12T01:22:02;101048.22;;;22.33;100.00
30636;BME280;17400;52.392;9.750;2023-08-12T01:24:35;101042.41;;;22.29;100.00
30636;BME280;17400;52.392;9.750;2023-08-12T01:27:04;101040.19;;;22.26;100.00
30636;BME280;17400;52.392;9.750;2023-08-12T01:29:34;101041.28;;;22.25;100.00
30636;BME280;17400;52.392;9.750;2023-08-12T01:32:14;101042.94;;;22.26;100.00
30636;BME280;17400;52.392;9.750;2023-08-12T01:34:48;101044.91;;;22.25;100.00
30636;BME280;17400;52.392;9.750;2023-08-12T01:37:24;101049.28;;;22.26;100.00
30636;BME280;17400;52.392;9.750;2023-08-12T01:39:55;101030.25;;;22.25;100.00
30636;BME280;17400;52.392;9.750;2023-08-12T01:42:25;101030.22;;;22.20;100.00
30636;BME280;17400;52.392;9.750;2023-08-12T01:44:54;101032.16;;;22.19;100.00
30636;BME280;17400;52.392;9.750;2023-08-12T01:47:22;101034.09;;;22.19;100.00
30636;BME280;17400;52.392;9.750;2023-08-12T01:49:50;101026.91;;;22.18;100.00
30636;BME280;17400;52.392;9.750;2023-08-12T01:52:18;101030.22;;;22.20;100.00
30636;BME280;17400;52.392;9.750;2023-08-12T01:54:46;101021.94;;;22.20;100.00
30636;BME280;17400;52.392;9.750;2023-08-12T01:57:31;101017.28;;;22.20;100.00
30636;BME280;17400;52.392;9.750;2023-08-12T02:00:00;101025.84;;;22.19;100.00
30636;BME280;17400;52.392;9.750;2023-08-12T02:02:28;101020.03;;;22.20;100.00
30636;BME280;17400;52.392;9.750;2023-08-12T02:04:56;101012.59;;;22.21;100.00
30636;BME280;17400;52.392;9.750;2023-08-12T02:07:24;101016.44;;;22.20;100.00
30636;BME280;17400;52.392;9.750;2023-08-12T02:09:52;101018.91;;;22.21;100.00
30636;BME280;17400;52.392;9.750;2023-08-12T02:12:20;101022.81;;;22.20;100.00
30636;BME280;17400;52.392;9.750;2023-08-12T02:14:49;101020.31;;;22.19;100.00
30636;BME280;17400;52.392;9.750;2023-08-12T02:17:17;101018.06;;;22.16;100.00
30636;BME280;17400;52.392;9.750;2023-08-12T02:19:45;101016.16;;;22.16;100.00
30636;BME280;17400;52.392;9.750;2023-08-12T02:22:13;101020.28;;;22.13;100.00
30636;BME280;17400;52.392;9.750;2023-08-12T02:24:41;101027.72;;;22.13;100.00
30636;BME280;17400;52.392;9.750;2023-08-12T02:27:09;101036.50;;;22.05;100.00
30636;BME280;17400;52.392;9.750;2023-08-12T02:29:37;101032.34;;;22.02;100.00
30636;BME280;17400;52.392;9.750;2023-08-12T02:32:06;101040.06;;;22.05;100.00
30636;BME280;17400;52.392;9.750;2023-08-12T02:34:34;101043.66;;;22.06;100.00
30636;BME280;17400;52.392;9.750;2023-08-12T02:37:02;101032.38;;;22.07;100.00
30636;BME280;17400;52.392;9.750;2023-08-12T02:39:30;101027.44;;;22.09;100.00
30636;BME280;17400;52.392;9.750;2023-08-12T02:41:58;101024.66;;;22.04;100.00
30636;BME280;17400;52.392;9.750;2023-08-12T02:44:28;101022.94;;;21.98;100.00
30636;BME280;17400;52.392;9.750;2023-08-12T02:46:56;101025.13;;;21.96;100.00
30636;BME280;17400;52.392;9.750;2023-08-12T02:49:25;101019.63;;;21.96;100.00
30636;BME280;17400;52.392;9.750;2023-08-12T02:51:53;101011.91;;;21.98;100.00
30636;BME280;17400;52.392;9.750;2023-08-12T02:54:21;101025.16;;;22.01;100.00
30636;BME280;17400;52.392;9.750;2023-08-12T02:56:49;101020.47;;;21.96;100.00
30636;BME280;17400;52.392;9.750;2023-08-12T02:59:17;101025.66;;;21.93;100.00
30636;BME280;17400;52.392;9.750;2023-08-12T03:01:45;101027.28;;;21.89;100.00
30636;BME280;17400;52.392;9.750;2023-08-12T03:04:13;101020.44;;;21.91;100.00
30636;BME280;17400;52.392;9.750;2023-08-12T03:06:42;101024.56;;;21.94;100.00
30636;BME280;17400;52.392;9.750;2023-08-12T03:09:10;101020.19;;;21.98;100.00
30636;BME280;17400;52.392;9.750;2023-08-12T03:11:40;101020.78;;;22.00;100.00
30636;BME280;17400;52.392;9.750;2023-08-12T03:14:08;101022.13;;;22.03;100.00
30636;BME280;17400;52.392;9.750;2023-08-12T03:16:37;101027.41;;;22.04;100.00
30636;BME280;17400;52.392;9.750;2023-08-12T03:19:04;101021.88;;;22.04;100.00
30636;BME280;17400;52.392;9.750;2023-08-12T03:21:32;101022.72;;;22.05;100.00
30636;BME280;17400;52.392;9.750;2023-08-12T03:24:02;101029.59;;;22.02;100.00
30636;BME280;17400;52.392;9.750;2023-08-12T03:26:30;101032.03;;;21.99;100.00
30636;BME280;17400;52.392;9.750;2023-08-12T03:28:58;101031.22;;;21.98;100.00
30636;BME280;17400;52.392;9.750;2023-08-12T03:31:26;101019.88;;;21.94;100.00
30636;BME280;17400;52.392;9.750;2023-08-12T03:33:54;101032.56;;;21.95;100.00
30636;BME280;17400;52.392;9.750;2023-08-12T03:36:22;101036.72;;;21.98;100.00
30636;BME280;17400;52.392;9.750;2023-08-12T03:38:50;101040.03;;;21.95;100.00
30636;BME280;17400;52.392;9.750;2023-08-12T03:41:19;101041.13;;;21.94;100.00
30636;BME280;17400;52.392;9.750;2023-08-12T03:43:47;101035.03;;;21.92;100.00
30636;BME280;17400;52.392;9.750;2023-08-12T03:46:16;101031.44;;;21.91;100.00
30636;BME280;17400;52.392;9.750;2023-08-12T03:48:44;101032.25;;;21.92;100.00
30636;BME280;17400;52.392;9.750;2023-08-12T03:51:12;101035.56;;;21.89;100.00
30636;BME280;17400;52.392;9.750;2023-08-12T03:53:40;101030.06;;;21.89;100.00
30636;BME280;17400;52.392;9.750;2023-08-12T03:56:08;101020.66;;;21.85;100.00
30636;BME280;17400;52.392;9.750;2023-08-12T03:58:38;101026.16;;;21.85;100.00
30636;BME280;17400;52.392;9.750;2023-08-12T04:01:05;101021.47;;;21.85;100.00
30636;BME280;17400;52.392;9.750;2023-08-12T04:03:33;101021.16;;;21.82;100.00
30636;BME280;17400;52.392;9.750;2023-08-12T04:06:01;101030.81;;;21.79;100.00
30636;BME280;17400;52.392;9.750;2023-08-12T04:08:29;101041.53;;;21.75;100.00
30636;BME280;17400;52.392;9.750;2023-08-12T04:10:59;101052.22;;;21.67;100.00
30636;BME280;17400;52.392;9.750;2023-08-12T04:13:26;101045.28;;;21.64;100.00
30636;BME280;17400;52.392;9.750;2023-08-12T04:15:55;101041.19;;;21.67;100.00
30636;BME280;17400;52.392;9.750;2023-08-12T04:18:23;101039.28;;;21.67;100.00
30636;BME280;17400;52.392;9.750;2023-08-12T04:20:52;101050.31;;;21.67;100.00
30636;BME280;17400;52.392;9.750;2023-08-12T04:23:21;101057.41;;;21.63;100.00
30636;BME280;17400;52.392;9.750;2023-08-12T04:25:49;101059.59;;;21.61;100.00
30636;BME280;17400;52.392;9.750;2023-08-12T04:28:18;101065.13;;;21.61;100.00
30636;BME280;17400;52.392;9.750;2023-08-12T04:30:48;101067.59;;;21.62;100.00
30636;BME280;17400;52.392;9.750;2023-08-12T04:33:18;101060.16;;;21.63;100.00
30636;BME280;17400;52.392;9.750;2023-08-12T04:35:47;101045.56;;;21.62;100.00
30636;BME280;17400;52.392;9.750;2023-08-12T04:38:15;101050.81;;;21.64;100.00
30636;BME280;17400;52.392;9.750;2023-08-12T04:40:45;101049.13;;;21.58;100.00
30636;BME280;17400;52.392;9.750;2023-08-12T04:43:13;101040.28;;;21.56;100.00
30636;BME280;17400;52.392;9.750;2023-08-12T04:45:44;101042.50;;;21.59;100.00
30636;BME280;17400;52.392;9.750;2023-08-12T04:48:12;101042.25;;;21.60;100.00
30636;BME280;17400;52.392;9.750;2023-08-12T04:50:42;101046.59;;;21.56;100.00
30636;BME280;17400;52.392;9.750;2023-08-12T04:53:10;101035.59;;;21.56;100.00
30636;BME280;17400;52.392;9.750;2023-08-12T04:55:38;101033.41;;;21.58;100.00
30636;BME280;17400;52.392;9.750;2023-08-12T04:58:06;101030.09;;;21.56;100.00
30636;BME280;17400;52.392;9.750;2023-08-12T05:00:34;101034.16;;;21.49;100.00
30636;BME280;17400;52.392;9.750;2023-08-12T05:03:03;101038.28;;;21.51;100.00
30636;BME280;17400;52.392;9.750;2023-08-12T05:05:33;101043.84;;;21.56;100.00
30636;BME280;17400;52.392;9.750;2023-08-12T05:08:06;101044.97;;;21.55;100.00
30636;BME280;17400;52.392;9.750;2023-08-12T05:10:34;101041.69;;;21.58;100.00
30636;BME280;17400;52.392;9.750;2023-08-12T05:13:02;101046.38;;;21.63;100.00
30636;BME280;17400;52.392;9.750;2023-08-12T05:15:32;101048.06;;;21.64;100.00
30636;BME280;17400;52.392;9.750;2023-08-12T05:18:08;101048.63;;;21.66;100.00
30636;BME280;17400;52.392;9.750;2023-08-12T05:20:39;101047.78;;;21.60;100.00
30636;BME280;17400;52.392;9.750;2023-08-12T05:23:14;101036.75;;;21.60;100.00
30636;BME280;17400;52.392;9.750;2023-08-12T05:25:43;101044.22;;;21.65;100.00
30636;BME280;17400;52.392;9.750;2023-08-12T05:28:12;101048.63;;;21.66;100.00
30636;BME280;17400;52.392;9.750;2023-08-12T05:30:43;101048.41;;;21.73;100.00
30636;BME280;17400;52.392;9.750;2023-08-12T05:33:17;101044.84;;;21.77;100.00
30636;BME280;17400;52.392;9.750;2023-08-12T05:35:48;101049.31;;;21.84;100.00
30636;BME280;17400;52.392;9.750;2023-08-12T05:38:23;101048.25;;;21.90;100.00
30636;BME280;17400;52.392;9.750;2023-08-12T05:40:52;101047.41;;;21.89;100.00
30636;BME280;17400;52.392;9.750;2023-08-12T05:43:20;101055.09;;;21.82;100.00
30636;BME280;17400;52.392;9.750;2023-08-12T05:45:48;101050.06;;;21.74;100.00
30636;BME280;17400;52.392;9.750;2023-08-12T05:48:16;101053.06;;;21.72;100.00
30636;BME280;17400;52.392;9.750;2023-08-12T05:50:45;101053.06;;;21.72;100.00
30636;BME280;17400;52.392;9.750;2023-08-12T05:53:18;101042.31;;;21.71;100.00
30636;BME280;17400;52.392;9.750;2023-08-12T05:55:51;101048.69;;;21.71;100.00
30636;BME280;17400;52.392;9.750;2023-08-12T05:58:21;101043.66;;;21.68;100.00
30636;BME280;17400;52.392;9.750;2023-08-12T06:00:54;101039.81;;;21.69;100.00
30636;BME280;17400;52.392;9.750;2023-08-12T06:03:23;101033.19;;;21.65;100.00
30636;BME280;17400;52.392;9.750;2023-08-12T06:05:54;101039.28;;;21.67;100.00
30636;BME280;17400;52.392;9.750;2023-08-12T06:08:24;101021.63;;;21.68;100.00
30636;BME280;17400;52.392;9.750;2023-08-12T06:10:55;101019.44;;;21.70;100.00
30636;BME280;17400;52.392;9.750;2023-08-12T06:13:26;101015.63;;;21.71;100.00
30636;BME280;17400;52.392;9.750;2023-08-12T06:15:56;101010.66;;;21.73;100.00
30636;BME280;17400;52.392;9.750;2023-08-12T06:18:24;101014.28;;;21.79;100.00
30636;BME280;17400;52.392;9.750;2023-08-12T06:20:52;101013.22;;;21.85;100.00
30636;BME280;17400;52.392;9.750;2023-08-12T06:23:20;101007.19;;;21.88;100.00
30636;BME280;17400;52.392;9.750;2023-08-12T06:25:51;101002.81;;;21.92;100.00
30636;BME280;17400;52.392;9.750;2023-08-12T06:28:20;101000.03;;;21.92;100.00
30636;BME280;17400;52.392;9.750;2023-08-12T06:30:48;100997.28;;;21.92;100.00
30636;BME280;17400;52.392;9.750;2023-08-12T06:33:16;101000.84;;;21.93;100.00
30636;BME280;17400;52.392;9.750;2023-08-12T06:35:44;100996.16;;;21.93;100.00
30636;BME280;17400;52.392;9.750;2023-08-12T06:38:16;100997.28;;;21.92;100.00
30636;BME280;17400;52.392;9.750;2023-08-12T06:40:44;100995.63;;;21.91;100.00
30636;BME280;17400;52.392;9.750;2023-08-12T06:43:13;100993.69;;;21.92;100.00
30636;BME280;17400;52.392;9.750;2023-08-12T06:45:42;100987.38;;;21.96;100.00
30636;BME280;17400;52.392;9.750;2023-08-12T06:48:10;100982.75;;;22.07;100.00
30636;BME280;17400;52.392;9.750;2023-08-12T06:50:38;100980.06;;;22.18;100.00
30636;BME280;17400;52.392;9.750;2023-08-12T06:53:06;100975.69;;;22.32;100.00
30636;BME280;17400;52.392;9.750;2023-08-12T06:55:34;100974.66;;;22.43;100.00
30636;BME280;17400;52.392;9.750;2023-08-12T06:58:02;100982.44;;;22.62;100.00
30636;BME280;17400;52.392;9.750;2023-08-12T07:00:30;100976.13;;;22.72;100.00
30636;BME280;17400;52.392;9.750;2023-08-12T07:02:59;100979.16;;;22.65;100.00
30636;BME280;17400;52.392;9.750;2023-08-12T07:05:27;100982.44;;;22.67;100.00
30636;BME280;17400;52.392;9.750;2023-08-12T07:07:55;100983.25;;;22.57;100.00
30636;BME280;17400;52.392;9.750;2023-08-12T07:10:24;100979.41;;;22.63;100.00
30636;BME280;17400;52.392;9.750;2023-08-12T07:12:56;100976.66;;;22.74;100.00
30636;BME280;17400;52.392;9.750;2023-08-12T07:15:24;100972.56;;;22.82;100.00
30636;BME280;17400;52.392;9.750;2023-08-12T07:17:52;100972.84;;;22.85;100.00
30636;BME280;17400;52.392;9.750;2023-08-12T07:20:21;100972.31;;;23.09;100.00
30636;BME280;17400;52.392;9.750;2023-08-12T07:22:50;100971.53;;;23.34;100.00
30636;BME280;17400;52.392;9.750;2023-08-12T07:25:18;100969.84;;;23.33;100.00
30636;BME280;17400;52.392;9.750;2023-08-12T07:27:46;100951.91;;;23.25;100.00
30636;BME280;17400;52.392;9.750;2023-08-12T07:30:14;100941.69;;;23.21;100.00
30636;BME280;17400;52.392;9.750;2023-08-12T07:32:42;100938.09;;;23.31;100.00
30636;BME280;17400;52.392;9.750;2023-08-12T07:35:10;100941.94;;;23.66;100.00
30636;BME280;17400;52.392;9.750;2023-08-12T07:37:40;100954.38;;;23.63;100.00
30636;BME280;17400;52.392;9.750;2023-08-12T07:40:09;100954.38;;;23.48;100.00
30636;BME280;17400;52.392;9.750;2023-08-12T07:42:37;100956.03;;;23.43;100.00
30636;BME280;17400;52.392;9.750;2023-08-12T07:45:07;100966.28;;;23.33;100.00
30636;BME280;17400;52.392;9.750;2023-08-12T07:47:35;100959.94;;;23.17;100.00
30636;BME280;17400;52.392;9.750;2023-08-12T07:50:07;100956.56;;;23.04;100.00
30636;BME280;17400;52.392;9.750;2023-08-12T07:52:35;100949.41;;;22.98;100.00
30636;BME280;17400;52.392;9.750;2023-08-12T07:55:04;100935.59;;;22.88;100.00
30636;BME280;17400;52.392;9.750;2023-08-12T07:57:33;100931.44;;;22.80;100.00
30636;BME280;17400;52.392;9.750;2023-08-12T08:00:01;100935.56;;;22.77;100.00
30636;BME280;17400;52.392;9.750;2023-08-12T08:02:29;100944.94;;;22.71;100.00
30636;BME280;17400;52.392;9.750;2023-08-12T08:04:57;100951.56;;;22.65;100.00
30636;BME280;17400;52.392;9.750;2023-08-12T08:07:25;100940.78;;;22.69;100.00
30636;BME280;17400;52.392;9.750;2023-08-12T08:09:53;100943.28;;;22.70;100.00
30636;BME280;17400;52.392;9.750;2023-08-12T08:12:23;100948.22;;;22.63;100.00
30636;BME280;17400;52.392;9.750;2023-08-12T08:14:50;100956.22;;;22.65;100.00
30636;BME280;17400;52.392;9.750;2023-08-12T08:17:18;100951.28;;;22.61;100.00
30636;BME280;17400;52.392;9.750;2023-08-12T08:19:46;100954.59;;;22.58;100.00
30636;BME280;17400;52.392;9.750;2023-08-12T08:22:14;100956.50;;;22.58;100.00
30636;BME280;17400;52.392;9.750;2023-08-12T08:24:42;100959.22;;;22.53;100.00
30636;BME280;17400;52.392;9.750;2023-08-12T08:27:10;100948.78;;;22.55;100.00
30636;BME280;17400;52.392;9.750;2023-08-12T08:29:41;100946.00;;;22.55;100.00
30636;BME280;17400;52.392;9.750;2023-08-12T08:32:09;100953.47;;;22.59;100.00
30636;BME280;17400;52.392;9.750;2023-08-12T08:34:37;100943.25;;;22.60;100.00
30636;BME280;17400;52.392;9.750;2023-08-12T08:37:05;100939.41;;;22.66;100.00
30636;BME280;17400;52.392;9.750;2023-08-12T08:39:33;100938.88;;;22.74;100.00
30636;BME280;17400;52.392;9.750;2023-08-12T08:42:02;100936.13;;;22.85;100.00
30636;BME280;17400;52.392;9.750;2023-08-12T08:44:33;100930.06;;;22.93;100.00
30636;BME280;17400;52.392;9.750;2023-08-12T08:47:04;100931.19;;;22.97;100.00
30636;BME280;17400;52.392;9.750;2023-08-12T08:49:33;100935.31;;;23.00;100.00
30636;BME280;17400;52.392;9.750;2023-08-12T08:52:03;100930.06;;;22.98;100.00
30636;BME280;17400;52.392;9.750;2023-08-12T08:54:31;100934.22;;;22.90;100.00
30636;BME280;17400;52.392;9.750;2023-08-12T08:56:59;100936.13;;;22.79;100.00
30636;BME280;17400;52.392;9.750;2023-08-12T08:59:42;100930.59;;;22.74;100.00
30636;BME280;17400;52.392;9.750;2023-08-12T09:02:15;100928.94;;;22.73;100.00
30636;BME280;17400;52.392;9.750;2023-08-12T09:04:44;100938.63;;;22.81;100.00
30636;BME280;17400;52.392;9.750;2023-08-12T09:07:12;100933.91;;;22.87;100.00
30636;BME280;17400;52.392;9.750;2023-08-12T09:09:44;100939.44;;;22.92;100.00
30636;BME280;17400;52.392;9.750;2023-08-12T09:12:15;100945.78;;;22.92;100.00
30636;BME280;17400;52.392;9.750;2023-08-12T09:14:44;100942.75;;;22.94;100.00
30636;BME280;17400;52.392;9.750;2023-08-12T09:17:14;100940.56;;;22.96;100.00
30636;BME280;17400;52.392;9.750;2023-08-12T09:19:42;100941.91;;;22.88;100.00
30636;BME280;17400;52.392;9.750;2023-08-12T09:22:11;100929.22;;;22.82;100.00
30636;BME280;17400;52.392;9.750;2023-08-12T09:24:40;100933.38;;;22.79;100.00
30636;BME280;17400;52.392;9.750;2023-08-12T09:27:08;100922.06;;;22.81;100.00
30636;BME280;17400;52.392;9.750;2023-08-12T09:29:36;100917.94;;;22.89;100.00
30636;BME280;17400;52.392;9.750;2023-08-12T09:32:09;100924.56;;;22.98;100.00
30636;BME280;17400;52.392;9.750;2023-08-12T09:34:46;100912.13;;;22.95;100.00
30636;BME280;17400;52.392;9.750;2023-08-12T09:37:14;100907.44;;;22.96;100.00
30636;BME280;17400;52.392;9.750;2023-08-12T09:39:42;100910.19;;;22.91;100.00
30636;BME280;17400;52.392;9.750;2023-08-12T09:42:11;100908.78;;;22.83;100.00
30636;BME280;17400;52.392;9.750;2023-08-12T09:44:41;100898.31;;;22.85;100.00
30636;BME280;17400;52.392;9.750;2023-08-12T09:47:09;100889.47;;;22.99;100.00
30636;BME280;17400;52.392;9.750;2023-08-12T09:49:40;100888.09;;;23.11;100.00
30636;BME280;17400;52.392;9.750;2023-08-12T09:52:08;100879.81;;;23.22;100.00
30636;BME280;17400;52.392;9.750;2023-08-12T09:54:37;100883.94;;;23.29;100.00
30636;BME280;17400;52.392;9.750;2023-08-12T09:57:05;100871.78;;;23.41;100.00
30636;BME280;17400;52.392;9.750;2023-08-12T09:59:35;100877.00;;;23.53;100.00
30636;BME280;17400;52.392;9.750;2023-08-12T10:02:03;100883.63;;;23.57;100.00
30636;BME280;17400;52.392;9.750;2023-08-12T10:04:37;100881.16;;;23.55;100.00
30636;BME280;17400;52.392;9.750;2023-08-12T10:07:09;100880.88;;;23.46;100.00
30636;BME280;17400;52.392;9.750;2023-08-12T10:09:40;100879.28;;;23.35;100.00
30636;BME280;17400;52.392;9.750;2023-08-12T10:12:09;100878.97;;;23.37;100.00
30636;BME280;17400;52.392;9.750;2023-08-12T10:14:39;100890.56;;;23.39;100.00
30636;BME280;17400;52.392;9.750;2023-08-12T10:17:08;100889.75;;;23.33;100.00
30636;BME280;17400;52.392;9.750;2023-08-12T10:19:37;100892.22;;;23.35;100.00
30636;BME280;17400;52.392;9.750;2023-08-12T10:22:13;100888.38;;;23.25;100.00
30636;BME280;17400;52.392;9.750;2023-08-12T10:24:43;100884.25;;;23.23;100.00
30636;BME280;17400;52.392;9.750;2023-08-12T10:27:12;100890.31;;;23.20;100.00
30636;BME280;17400;52.392;9.750;2023-08-12T10:29:42;100892.25;;;23.24;100.00
30636;BME280;17400;52.392;9.750;2023-08-12T10:32:10;100888.66;;;23.39;100.00
30636;BME280;17400;52.392;9.750;2023-08-12T10:34:39;100894.09;;;23.60;100.00
30636;BME280;17400;52.392;9.750;2023-08-12T10:37:09;100892.94;;;23.87;100.00
30636;BME280;17400;52.392;9.750;2023-08-12T10:39:39;100895.66;;;23.97;100.00
30636;BME280;17400;52.392;9.750;2023-08-12T10:42:07;100890.75;;;23.73;100.00
30636;BME280;17400;52.392;9.750;2023-08-12T10:44:40;100896.34;;;23.58;100.00
30636;BME280;17400;52.392;9.750;2023-08-12T10:47:08;100885.00;;;23.59;100.00
30636;BME280;17400;52.392;9.750;2023-08-12T10:49:39;100861.19;;;23.74;100.00
30636;BME280;17400;52.392;9.750;2023-08-12T10:52:25;100848.16;;;23.90;100.00
30636;BME280;17400;52.392;9.750;2023-08-12T10:54:55;100843.69;;;23.89;100.00
30636;BME280;17400;52.392;9.750;2023-08-12T10:57:43;100835.16;;;23.90;100.00
30636;BME280;17400;52.392;9.750;2023-08-12T11:00:13;100828.50;;;23.97;100.00
30636;BME280;17400;52.392;9.750;2023-08-12T11:02:44;100809.41;;;24.00;100.00
30636;BME280;17400;52.392;9.750;2023-08-12T11:05:13;100815.47;;;24.02;100.00
30636;BME280;17400;52.392;9.750;2023-08-12T11:07:43;100819.56;;;24.10;100.00
30636;BME280;17400;52.392;9.750;2023-08-12T11:10:14;100829.19;;;24.23;100.00
30636;BME280;17400;52.392;9.750;2023-08-12T11:12:48;100822.72;;;24.38;100.00
30636;BME280;17400;52.392;9.750;2023-08-12T11:15:16;100816.00;;;24.49;100.00
30636;BME280;17400;52.392;9.750;2023-08-12T11:17:46;100816.28;;;24.48;100.00
30636;BME280;17400;52.392;9.750;2023-08-12T11:20:14;100822.97;;;24.41;100.00
30636;BME280;17400;52.392;9.750;2023-08-12T11:22:44;100820.31;;;24.21;100.00
30636;BME280;17400;52.392;9.750;2023-08-12T11:25:14;100811.50;;;24.19;100.00
30636;BME280;17400;52.392;9.750;2023-08-12T11:27:46;100817.59;;;24.16;100.00
30636;BME280;17400;52.392;9.750;2023-08-12T11:30:16;100808.22;;;24.11;100.00
30636;BME280;17400;52.392;9.750;2023-08-12T11:32:45;100801.53;;;24.23;100.00
30636;BME280;17400;52.392;9.750;2023-08-12T11:35:16;100804.59;;;24.56;100.00
30636;BME280;17400;52.392;9.750;2023-08-12T11:37:46;100807.66;;;24.89;100.00
30636;BME280;17400;52.392;9.750;2023-08-12T11:40:17;100798.97;;;25.01;100.00
30636;BME280;17400;52.392;9.750;2023-08-12T11:42:46;100798.25;;;24.90;100.00
30636;BME280;17400;52.392;9.750;2023-08-12T11:45:16;100793.13;;;24.73;100.00
30636;BME280;17400;52.392;9.750;2023-08-12T11:47:45;100794.03;;;24.58;100.00
30636;BME280;17400;52.392;9.750;2023-08-12T11:50:19;100791.06;;;24.54;100.00
30636;BME280;17400;52.392;9.750;2023-08-12T11:52:48;100791.81;;;24.65;100.00
30636;BME280;17400;52.392;9.750;2023-08-12T11:55:18;100782.69;;;24.94;100.00
30636;BME280;17400;52.392;9.750;2023-08-12T11:57:47;100780.88;;;25.33;100.00
30636;BME280;17400;52.392;9.750;2023-08-12T12:00:15;100783.91;;;25.60;100.00
30636;BME280;17400;52.392;9.750;2023-08-12T12:02:48;100773.94;;;25.59;100.00
30636;BME280;17400;52.392;9.750;2023-08-12T12:05:17;100782.06;;;25.51;100.00
30636;BME280;17400;52.392;9.750;2023-08-12T12:07:50;100781.66;;;25.38;100.00
30636;BME280;17400;52.392;9.750;2023-08-12T12:10:21;100776.75;;;25.30;100.00
30636;BME280;17400;52.392;9.750;2023-08-12T12:12:59;100776.81;;;25.49;100.00
30636;BME280;17400;52.392;9.750;2023-08-12T12:15:27;100758.84;;;25.47;100.00
30636;BME280;17400;52.392;9.750;2023-08-12T12:17:55;100760.59;;;25.61;100.00
30636;BME280;17400;52.392;9.750;2023-08-12T12:20:24;100758.66;;;25.62;100.00
30636;BME280;17400;52.392;9.750;2023-08-12T12:22:57;100771.88;;;25.46;100.00
30636;BME280;17400;52.392;9.750;2023-08-12T12:25:32;100766.69;;;25.39;100.00
30636;BME280;17400;52.392;9.750;2023-08-12T12:28:00;100754.81;;;25.39;100.00
30636;BME280;17400;52.392;9.750;2023-08-12T12:30:32;100751.88;;;25.49;100.00
30636;BME280;17400;52.392;9.750;2023-08-12T12:33:02;100740.16;;;25.76;100.00
30636;BME280;17400;52.392;9.750;2023-08-12T12:35:32;100745.56;;;26.06;100.00
30636;BME280;17400;52.392;9.750;2023-08-12T12:38:18;100743.28;;;26.27;100.00
30636;BME280;17400;52.392;9.750;2023-08-12T12:40:48;100725.69;;;26.51;100.00
30636;BME280;17400;52.392;9.750;2023-08-12T12:43:17;100733.13;;;26.69;100.00
30636;BME280;17400;52.392;9.750;2023-08-12T12:45:45;100736.38;;;26.90;100.00
30636;BME280;17400;52.392;9.750;2023-08-12T12:48:14;100735.03;;;26.74;100.00
30636;BME280;17400;52.392;9.750;2023-08-12T12:50:43;100729.28;;;26.51;100.00
30636;BME280;17400;52.392;9.750;2023-08-12T12:53:11;100730.16;;;26.33;100.00